Time;durP1;ratioP1;P1;durP2;ratioP2;P2;SDS_P1;SDS_P2;PMS_P1;PMS_P2;Temp;Humidity;BMP_temperature;BMP_pressure;BME280_temperature;BME280_humidity;BME280_pressure;Samples;Min_cycle;Max_cycle;Signal;HPM_P1;HPM_P2
2021/12/05 00:21:39;;;;;;;12.40;11.30;;;;;;;;;;4999777;28;24412;-58
2021/12/05 00:24:10;;;;;;;12.50;11.40;;;;;;;;;;4988169;28;24502;-58
2021/12/05 00:26:36;;;;;;;11.85;10.85;;;;;;;;;;5002852;28;24397;-57
2021/12/05 00:29:16;;;;;;;13.05;11.95;;;;;;;;;;4997227;28;24439;-57
2021/12/05 00:47:29;;;;;;;14.70;13.30;;;;;;;;;;5002740;28;25149;-58
2021/12/05 00:53:23;;;;;;;12.30;11.20;;;;;;;;;;4963226;28;24545;-58
2021/12/05 01:07:09;;;;;;;12.05;11.00;;;;;;;;;;4997716;28;24412;-59
2021/12/05 01:09:41;;;;;;;11.80;10.80;;;;;;;;;;4997905;28;24837;-59
2021/12/05 01:12:17;;;;;;;12.55;11.45;;;;;;;;;;4986328;28;24576;-59
2021/12/05 01:15:01;;;;;;;11.82;10.93;;;;;;;;;;5001619;28;24413;-59
2021/12/05 01:17:32;;;;;;;11.23;10.32;;;;;;;;;;4996631;28;24524;-58
2021/12/05 01:19:58;;;;;;;11.73;10.73;;;;;;;;;;4998880;28;24511;-58
2021/12/05 01:22:24;;;;;;;12.90;11.70;;;;;;;;;;5002826;28;24503;-58
2021/12/05 01:25:03;;;;;;;12.73;11.63;;;;;;;;;;5001461;28;24527;-58
2021/12/05 01:30:03;;;;;;;15.00;13.60;;;;;;;;;;4999055;28;24486;-57
2021/12/05 01:35:38;;;;;;;13.00;11.90;;;;;;;;;;5000700;28;24439;-57
2021/12/05 01:38:14;;;;;;;12.30;11.20;;;;;;;;;;5004417;28;24818;-58
2021/12/05 01:49:06;;;;;;;12.30;11.20;;;;;;;;;;4957704;28;25009;-58
2021/12/05 01:57:32;;;;;;;12.18;11.10;;;;;;;;;;4969083;28;24810;-58
2021/12/05 02:00:34;;;;;;;11.65;10.65;;;;;;;;;;5003436;28;24420;-58
2021/12/05 02:07:39;;;;;;;10.55;9.75;;;;;;;;;;5005821;28;24825;-57
2021/12/05 02:33:16;;;;;;;7.10;6.60;;;;;;;;;;5001430;28;24432;-58
2021/12/05 02:38:50;;;;;;;6.70;6.20;;;;;;;;;;5001917;28;24874;-58
2021/12/05 02:43:44;;;;;;;6.68;6.18;;;;;;;;;;4999911;28;24479;-58
2021/12/05 02:46:12;;;;;;;6.80;6.28;;;;;;;;;;4981127;28;24911;-58
2021/12/05 02:48:38;;;;;;;6.93;6.43;;;;;;;;;;5002697;28;24834;-58
2021/12/05 02:51:05;;;;;;;5.80;5.40;;;;;;;;;;4997724;28;24420;-57
2021/12/05 02:56:31;;;;;;;6.15;5.65;;;;;;;;;;4957925;28;24965;-59
2021/12/05 02:59:00;;;;;;;6.10;5.70;;;;;;;;;;5000230;28;24950;-56
2021/12/05 03:01:40;;;;;;;6.40;5.85;;;;;;;;;;4999712;28;24832;-57
2021/12/05 03:04:06;;;;;;;6.28;5.78;;;;;;;;;;5001864;28;24409;-58
2021/12/05 03:06:33;;;;;;;6.18;5.68;;;;;;;;;;4991813;28;24493;-57
2021/12/05 03:09:06;;;;;;;5.50;5.10;;;;;;;;;;4989205;28;24448;-58
2021/12/05 03:11:31;;;;;;;6.20;5.80;;;;;;;;;;5000164;28;24416;-58
2021/12/05 03:13:57;;;;;;;5.70;5.30;;;;;;;;;;5000892;28;25061;-58
2021/12/05 03:16:22;;;;;;;6.40;5.90;;;;;;;;;;4993556;28;24413;-58
2021/12/05 03:18:48;;;;;;;6.13;5.65;;;;;;;;;;5001294;28;24449;-58
2021/12/05 03:21:13;;;;;;;6.50;6.00;;;;;;;;;;5000664;28;24509;-58
2021/12/05 03:23:40;;;;;;;6.50;6.00;;;;;;;;;;4999393;28;24944;-58
2021/12/05 03:26:07;;;;;;;6.40;5.90;;;;;;;;;;5002432;28;24496;-58
2021/12/05 03:28:32;;;;;;;6.10;5.60;;;;;;;;;;5004401;28;25271;-58
2021/12/05 03:30:58;;;;;;;7.30;6.70;;;;;;;;;;5001974;28;24431;-58
2021/12/05 03:33:23;;;;;;;6.50;6.00;;;;;;;;;;5004703;28;24443;-58
2021/12/05 03:35:48;;;;;;;5.53;5.03;;;;;;;;;;5004120;28;24432;-58
2021/12/05 03:38:14;;;;;;;6.50;5.90;;;;;;;;;;5004582;28;24460;-63
2021/12/05 03:40:39;;;;;;;6.20;5.70;;;;;;;;;;4982640;28;24420;-58
2021/12/05 03:43:07;;;;;;;6.47;5.87;;;;;;;;;;5000379;28;24416;-58
2021/12/05 03:45:35;;;;;;;5.78;5.28;;;;;;;;;;5004129;28;24420;-58
2021/12/05 03:48:00;;;;;;;6.30;5.80;;;;;;;;;;5003676;28;24436;-58
2021/12/05 03:50:27;;;;;;;6.50;6.00;;;;;;;;;;4999092;28;24959;-58
2021/12/05 03:52:53;;;;;;;6.10;5.60;;;;;;;;;;5003003;28;24455;-57
2021/12/05 03:55:18;;;;;;;6.32;5.70;;;;;;;;;;5002067;28;24897;-58
2021/12/05 03:57:44;;;;;;;6.20;5.70;;;;;;;;;;5000524;28;25074;-57
2021/12/05 04:00:26;;;;;;;5.60;5.10;;;;;;;;;;4998101;28;24404;-57
2021/12/05 04:02:53;;;;;;;5.90;5.30;;;;;;;;;;5003154;28;24420;-57
2021/12/05 04:05:18;;;;;;;5.60;5.10;;;;;;;;;;5002194;28;24409;-57
2021/12/05 04:07:44;;;;;;;5.77;5.17;;;;;;;;;;4999676;28;24798;-57
2021/12/05 04:10:09;;;;;;;5.93;5.40;;;;;;;;;;4998768;28;24880;-57
2021/12/05 04:12:35;;;;;;;5.75;5.35;;;;;;;;;;5004004;28;24679;-58
2021/12/05 04:15:00;;;;;;;5.65;5.15;;;;;;;;;;5000995;28;25365;-58
2021/12/05 04:17:25;;;;;;;5.90;5.07;;;;;;;;;;5003464;28;24981;-58
2021/12/05 04:19:51;;;;;;;5.22;4.75;;;;;;;;;;5004073;28;24388;-58
2021/12/05 04:22:16;;;;;;;5.80;5.30;;;;;;;;;;5001384;28;24417;-58
2021/12/05 04:24:41;;;;;;;4.90;4.40;;;;;;;;;;4997875;28;24512;-58
2021/12/05 04:27:07;;;;;;;5.13;4.63;;;;;;;;;;5001867;28;24712;-58
2021/12/05 04:29:33;;;;;;;5.40;4.90;;;;;;;;;;5003163;28;24407;-58
2021/12/05 04:31:59;;;;;;;5.22;4.72;;;;;;;;;;5000760;28;24489;-58
2021/12/05 04:34:24;;;;;;;4.80;4.40;;;;;;;;;;5003159;28;24421;-58
2021/12/05 04:36:55;;;;;;;4.30;4.00;;;;;;;;;;4997626;28;24424;-58
2021/12/05 04:39:20;;;;;;;4.43;4.13;;;;;;;;;;4996296;28;24447;-58
2021/12/05 04:41:45;;;;;;;4.10;3.70;;;;;;;;;;4985487;28;24986;-58
2021/12/05 04:44:11;;;;;;;5.30;4.00;;;;;;;;;;5000704;28;24424;-58
2021/12/05 04:46:36;;;;;;;4.43;3.57;;;;;;;;;;5002714;28;24459;-58
2021/12/05 04:49:02;;;;;;;3.63;3.33;;;;;;;;;;5001253;28;25004;-58
2021/12/05 04:51:30;;;;;;;3.53;3.22;;;;;;;;;;5000944;28;24416;-58
2021/12/05 04:53:55;;;;;;;4.03;3.70;;;;;;;;;;5003110;28;24415;-58
2021/12/05 04:56:21;;;;;;;3.80;3.40;;;;;;;;;;4999241;28;24428;-58
2021/12/05 04:58:46;;;;;;;3.80;3.50;;;;;;;;;;5000396;28;25013;-58
2021/12/05 05:01:11;;;;;;;4.20;3.50;;;;;;;;;;4996612;28;24591;-58
2021/12/05 05:03:37;;;;;;;4.13;3.73;;;;;;;;;;5003275;28;24582;-58
2021/12/05 05:06:14;;;;;;;3.80;3.20;;;;;;;;;;5000917;28;25280;-58
2021/12/05 05:08:39;;;;;;;3.67;3.20;;;;;;;;;;5001681;28;24499;-58
2021/12/05 05:11:05;;;;;;;4.53;3.50;;;;;;;;;;5000656;28;24416;-58
2021/12/05 05:13:32;;;;;;;4.40;4.00;;;;;;;;;;5002620;28;24516;-58
2021/12/05 05:15:57;;;;;;;3.80;3.50;;;;;;;;;;4996930;28;24417;-58
2021/12/05 05:18:26;;;;;;;4.00;3.60;;;;;;;;;;5002633;28;24468;-58
2021/12/05 05:21:06;;;;;;;4.85;4.13;;;;;;;;;;5002444;28;25024;-58
2021/12/05 05:29:35;;;;;;;4.38;3.88;;;;;;;;;;4998159;28;24462;-58
2021/12/05 05:43:09;;;;;;;3.60;3.30;;;;;;;;;;4956622;28;24503;-58
2021/12/05 05:50:53;;;;;;;4.40;4.10;;;;;;;;;;4945873;28;24510;-58
2021/12/05 05:53:18;;;;;;;4.10;3.70;;;;;;;;;;4987787;28;24486;-58
2021/12/05 05:55:43;;;;;;;4.60;4.10;;;;;;;;;;4998960;28;25066;-58
2021/12/05 05:58:13;;;;;;;4.30;3.60;;;;;;;;;;4997908;28;24432;-57
2021/12/05 06:00:50;;;;;;;4.00;3.60;;;;;;;;;;4998471;28;24465;-58
2021/12/05 06:03:22;;;;;;;5.22;4.18;;;;;;;;;;4998798;28;24970;-58
2021/12/05 06:06:07;;;;;;;4.60;3.88;;;;;;;;;;5001518;28;24428;-58
2021/12/05 06:08:33;;;;;;;5.38;3.97;;;;;;;;;;4995868;28;24505;-58
2021/12/05 06:11:00;;;;;;;4.63;3.70;;;;;;;;;;4997461;28;24416;-57
2021/12/05 06:13:27;;;;;;;5.20;4.10;;;;;;;;;;5002782;28;24539;-58
2021/12/05 06:15:52;;;;;;;6.65;4.30;;;;;;;;;;5000967;28;24500;-57
2021/12/05 06:18:17;;;;;;;4.00;3.70;;;;;;;;;;4999869;28;24902;-58
2021/12/05 06:20:43;;;;;;;4.80;4.20;;;;;;;;;;5001745;28;24416;-58
2021/12/05 06:23:09;;;;;;;4.35;3.95;;;;;;;;;;5000034;28;24512;-58
2021/12/05 06:25:36;;;;;;;5.47;4.05;;;;;;;;;;5004879;28;24413;-57
2021/12/05 06:28:05;;;;;;;4.20;3.90;;;;;;;;;;5001473;28;24435;-57
2021/12/05 06:41:59;;;;;;;4.50;4.10;;;;;;;;;;4923911;29;24409;-57
2021/12/05 06:47:11;;;;;;;3.67;3.38;;;;;;;;;;5004098;28;24419;-57
2021/12/05 06:49:36;;;;;;;4.80;3.90;;;;;;;;;;5004528;28;24502;-57
2021/12/05 06:52:02;;;;;;;5.60;4.30;;;;;;;;;;5001463;28;24494;-57
2021/12/05 06:54:27;;;;;;;4.27;3.87;;;;;;;;;;4982589;28;24748;-57
2021/12/05 06:56:52;;;;;;;7.73;4.67;;;;;;;;;;4993609;28;24415;-57
2021/12/05 06:59:17;;;;;;;4.17;3.60;;;;;;;;;;5002702;28;24476;-57
2021/12/05 07:01:43;;;;;;;4.30;3.60;;;;;;;;;;5004829;28;24475;-57
2021/12/05 07:04:20;;;;;;;4.13;3.50;;;;;;;;;;5000429;28;24413;-58
2021/12/05 07:06:45;;;;;;;5.30;3.60;;;;;;;;;;4999100;28;24412;-57
2021/12/05 07:09:11;;;;;;;4.50;4.10;;;;;;;;;;4997981;28;24483;-57
2021/12/05 07:11:47;;;;;;;5.20;3.80;;;;;;;;;;4997286;28;24420;-57
2021/12/05 07:14:32;;;;;;;4.57;3.77;;;;;;;;;;5003506;28;24711;-57
2021/12/05 07:17:07;;;;;;;4.88;3.25;;;;;;;;;;4984590;28;24829;-58
2021/12/05 07:19:45;;;;;;;3.45;3.22;;;;;;;;;;5001560;28;24541;-57
2021/12/05 07:22:22;;;;;;;5.70;3.70;;;;;;;;;;5000925;28;24973;-57
2021/12/05 07:24:52;;;;;;;5.43;4.05;;;;;;;;;;4981592;28;24431;-57
2021/12/05 07:41:11;;;;;;;4.18;3.70;;;;;;;;;;4997417;28;25019;-57
2021/12/05 07:43:36;;;;;;;4.00;3.05;;;;;;;;;;4999899;28;24998;-57
2021/12/05 07:46:07;;;;;;;4.00;3.30;;;;;;;;;;4997003;28;24756;-58
2021/12/05 07:48:35;;;;;;;4.45;3.67;;;;;;;;;;4995170;28;24547;-57
2021/12/05 07:51:09;;;;;;;3.70;3.13;;;;;;;;;;4990525;28;24429;-58
2021/12/05 07:53:46;;;;;;;4.90;3.53;;;;;;;;;;4985201;28;24977;-58
2021/12/05 07:56:35;;;;;;;4.00;3.33;;;;;;;;;;4998176;28;24436;-58
2021/12/05 08:15:23;;;;;;;4.00;3.40;;;;;;;;;;4996506;28;24423;-58
2021/12/05 08:17:53;;;;;;;3.50;2.90;;;;;;;;;;4989315;28;25119;-58
2021/12/05 08:20:20;;;;;;;3.70;2.90;;;;;;;;;;4993989;28;25154;-58
2021/12/05 08:22:46;;;;;;;3.10;2.70;;;;;;;;;;4999342;28;24487;-58
2021/12/05 08:25:12;;;;;;;2.80;2.50;;;;;;;;;;4995127;28;24950;-58
2021/12/05 08:27:41;;;;;;;3.57;3.03;;;;;;;;;;4994392;28;25412;-58
2021/12/05 08:30:11;;;;;;;4.75;3.38;;;;;;;;;;4995907;28;24381;-58
2021/12/05 08:32:56;;;;;;;3.10;2.77;;;;;;;;;;4989192;28;24593;-58
2021/12/05 08:39:21;;;;;;;7.88;6.07;;;;;;;;;;4993303;28;24583;-58
2021/12/05 09:23:02;;;;;;;6.95;4.70;;;;;;;;;;4994299;28;24427;-58
2021/12/05 09:30:51;;;;;;;6.70;4.60;;;;;;;;;;4999284;28;24504;-58
2021/12/05 09:39:35;;;;;;;4.32;3.20;;;;;;;;;;5002021;28;24870;-58
2021/12/05 10:15:01;;;;;;;2.83;2.50;;;;;;;;;;4997906;28;24411;-57
2021/12/05 10:17:43;;;;;;;2.70;2.50;;;;;;;;;;5004086;28;24482;-58
2021/12/05 10:26:03;;;;;;;4.13;2.90;;;;;;;;;;4998522;28;24428;-58
2021/12/05 10:37:27;;;;;;;3.80;2.80;;;;;;;;;;5005234;28;24419;-58
2021/12/05 10:40:05;;;;;;;2.58;2.25;;;;;;;;;;5004721;28;24436;-59
2021/12/05 10:42:43;;;;;;;3.22;2.78;;;;;;;;;;5004583;28;24420;-58
2021/12/05 10:45:10;;;;;;;2.50;2.30;;;;;;;;;;4997840;28;24478;-58
2021/12/05 10:47:45;;;;;;;4.60;2.80;;;;;;;;;;4997746;28;24426;-58
2021/12/05 10:50:29;;;;;;;3.53;2.70;;;;;;;;;;5001128;28;24413;-58
2021/12/05 10:53:12;;;;;;;3.07;2.70;;;;;;;;;;5003146;28;24475;-58
2021/12/05 10:55:37;;;;;;;3.38;2.83;;;;;;;;;;4978364;28;24866;-58
2021/12/05 10:58:05;;;;;;;3.40;2.47;;;;;;;;;;4992948;28;24467;-58
2021/12/05 11:00:31;;;;;;;4.97;2.65;;;;;;;;;;4990868;28;24420;-58
2021/12/05 11:03:15;;;;;;;4.10;2.40;;;;;;;;;;5002046;28;24405;-58
2021/12/05 11:05:41;;;;;;;5.10;2.97;;;;;;;;;;5004107;28;24404;-58
2021/12/05 11:08:26;;;;;;;3.90;3.37;;;;;;;;;;5002207;28;24420;-58
2021/12/05 11:11:04;;;;;;;3.42;2.90;;;;;;;;;;4992886;28;24435;-58
2021/12/05 11:13:29;;;;;;;3.75;3.10;;;;;;;;;;5000594;28;24421;-63
2021/12/05 11:15:54;;;;;;;5.18;2.97;;;;;;;;;;5000622;28;24426;-58
2021/12/05 11:18:38;;;;;;;4.63;3.00;;;;;;;;;;4998352;28;24444;-58
2021/12/05 11:21:22;;;;;;;3.60;2.60;;;;;;;;;;5000886;28;24779;-58
2021/12/05 11:24:02;;;;;;;3.38;2.50;;;;;;;;;;5004350;28;24423;-58
2021/12/05 11:26:29;;;;;;;4.95;3.15;;;;;;;;;;4991044;28;24774;-58
2021/12/05 11:28:54;;;;;;;4.53;3.10;;;;;;;;;;5002079;28;24541;-58
2021/12/05 11:31:27;;;;;;;4.67;3.13;;;;;;;;;;4997228;28;24904;-58
2021/12/05 11:33:56;;;;;;;4.25;3.00;;;;;;;;;;4991125;28;24427;-58
2021/12/05 11:36:30;;;;;;;6.07;3.50;;;;;;;;;;4996424;28;24482;-58
2021/12/05 11:38:56;;;;;;;3.63;2.80;;;;;;;;;;5000851;28;24976;-58
2021/12/05 11:41:23;;;;;;;5.23;2.90;;;;;;;;;;4994731;28;24424;-58
2021/12/05 11:43:53;;;;;;;4.10;3.10;;;;;;;;;;4986782;28;25336;-58
2021/12/05 11:46:20;;;;;;;6.03;3.20;;;;;;;;;;4994627;28;24421;-58
2021/12/05 11:48:57;;;;;;;5.28;2.88;;;;;;;;;;4993707;28;24839;-58
2021/12/05 11:51:32;;;;;;;4.22;3.00;;;;;;;;;;4991329;28;24408;-56
2021/12/05 11:54:08;;;;;;;4.93;3.72;;;;;;;;;;5000166;28;24516;-56
2021/12/05 11:56:39;;;;;;;3.30;2.67;;;;;;;;;;4979694;28;25253;-56
2021/12/05 11:59:10;;;;;;;4.70;2.40;;;;;;;;;;4994016;28;24444;-56
2021/12/05 12:01:56;;;;;;;4.68;3.00;;;;;;;;;;4979941;28;24542;-59
2021/12/05 12:04:24;;;;;;;3.30;3.00;;;;;;;;;;4975685;28;24448;-58
2021/12/05 12:07:05;;;;;;;4.85;3.42;;;;;;;;;;4997717;28;24431;-58
2021/12/05 12:09:31;;;;;;;3.40;2.90;;;;;;;;;;4998199;28;24443;-58
2021/12/05 12:11:56;;;;;;;9.52;6.32;;;;;;;;;;4993049;28;24416;-58
2021/12/05 12:14:21;;;;;;;29.02;14.73;;;;;;;;;;4988446;28;24428;-58
2021/12/05 12:16:48;;;;;;;37.03;19.40;;;;;;;;;;4967599;28;24437;-58
2021/12/05 12:19:13;;;;;;;45.10;21.15;;;;;;;;;;4984146;28;24448;-58
2021/12/05 12:21:42;;;;;;;103.50;43.97;;;;;;;;;;4996860;28;24409;-58
2021/12/05 12:24:10;;;;;;;23.10;11.80;;;;;;;;;;4995837;28;24560;-58
2021/12/05 12:26:35;;;;;;;33.05;15.90;;;;;;;;;;5000586;28;24845;-58
2021/12/05 12:29:02;;;;;;;53.50;28.83;;;;;;;;;;4999243;28;24464;-58
2021/12/05 12:31:33;;;;;;;78.07;38.67;;;;;;;;;;4997674;28;24435;-58
2021/12/05 12:34:00;;;;;;;6.60;4.93;;;;;;;;;;4997488;28;24725;-58
2021/12/05 12:36:36;;;;;;;10.40;7.53;;;;;;;;;;4995901;28;24439;-58
2021/12/05 12:39:04;;;;;;;8.60;5.50;;;;;;;;;;4996679;28;24443;-58
2021/12/05 12:41:30;;;;;;;6.32;3.50;;;;;;;;;;4999052;28;24826;-58
2021/12/05 12:43:58;;;;;;;3.30;2.60;;;;;;;;;;4996705;28;24455;-58
2021/12/05 12:46:23;;;;;;;8.23;4.70;;;;;;;;;;4996493;28;24408;-57
2021/12/05 12:48:50;;;;;;;9.95;6.15;;;;;;;;;;4999067;28;24447;-58
2021/12/05 12:51:36;;;;;;;5.13;2.85;;;;;;;;;;4996971;28;24483;-58
2021/12/05 12:54:04;;;;;;;5.15;2.78;;;;;;;;;;4989090;28;25039;-58
2021/12/05 12:56:29;;;;;;;3.50;2.80;;;;;;;;;;4999134;28;25014;-58
2021/12/05 12:59:00;;;;;;;10.50;7.43;;;;;;;;;;4993640;28;25274;-58
2021/12/05 13:01:39;;;;;;;14.13;9.55;;;;;;;;;;4996693;28;24417;-58
2021/12/05 13:12:40;;;;;;;6.00;4.40;;;;;;;;;;4952847;28;24994;-58
2021/12/05 13:15:10;;;;;;;4.32;2.92;;;;;;;;;;4986639;28;24606;-58
2021/12/05 13:17:47;;;;;;;4.88;3.22;;;;;;;;;;4996765;28;24432;-57
2021/12/05 13:20:14;;;;;;;4.25;3.30;;;;;;;;;;4991399;28;25030;-57
2021/12/05 13:23:00;;;;;;;4.63;2.90;;;;;;;;;;4989822;28;24786;-57
2021/12/05 13:25:25;;;;;;;2.80;2.50;;;;;;;;;;4995244;28;24416;-57
2021/12/05 13:27:50;;;;;;;4.20;2.80;;;;;;;;;;4993094;28;24416;-57
2021/12/05 13:30:32;;;;;;;6.00;3.00;;;;;;;;;;4996936;28;24433;-57
2021/12/05 13:33:15;;;;;;;2.80;2.60;;;;;;;;;;4999375;28;24470;-58
2021/12/05 13:35:40;;;;;;;3.40;2.80;;;;;;;;;;4999190;28;25023;-57
2021/12/05 13:38:06;;;;;;;4.43;3.10;;;;;;;;;;5000608;28;24440;-57
2021/12/05 13:40:32;;;;;;;6.80;3.55;;;;;;;;;;5003172;28;24448;-57
2021/12/05 13:43:03;;;;;;;4.60;3.10;;;;;;;;;;5000679;28;24420;-57
2021/12/05 13:45:28;;;;;;;3.63;2.70;;;;;;;;;;5002459;28;25001;-58
2021/12/05 13:47:54;;;;;;;4.20;3.28;;;;;;;;;;4998429;28;24479;-57
2021/12/05 13:50:19;;;;;;;6.35;3.30;;;;;;;;;;5000350;28;24423;-57
2021/12/05 13:52:53;;;;;;;5.20;2.77;;;;;;;;;;5003077;28;24420;-57
2021/12/05 13:55:39;;;;;;;4.30;2.90;;;;;;;;;;5000039;28;24431;-57
2021/12/05 13:58:23;;;;;;;5.00;2.83;;;;;;;;;;4999972;28;24447;-57
2021/12/05 14:01:03;;;;;;;4.17;2.83;;;;;;;;;;4997920;28;25032;-58
2021/12/05 14:03:37;;;;;;;4.63;2.67;;;;;;;;;;4999996;28;24444;-58
2021/12/05 14:06:02;;;;;;;3.83;2.80;;;;;;;;;;4995553;28;24443;-58
2021/12/05 14:08:28;;;;;;;5.30;3.13;;;;;;;;;;4998016;28;24774;-57
2021/12/05 14:10:53;;;;;;;5.23;3.03;;;;;;;;;;4995656;28;24426;-57
2021/12/05 14:13:21;;;;;;;3.03;2.60;;;;;;;;;;5001221;28;24474;-57
2021/12/05 14:15:46;;;;;;;3.73;2.40;;;;;;;;;;5001179;28;24431;-57
2021/12/05 14:18:20;;;;;;;4.68;2.70;;;;;;;;;;4998492;28;24436;-60
2021/12/05 14:20:45;;;;;;;4.25;2.80;;;;;;;;;;4996930;28;24413;-57
2021/12/05 14:23:19;;;;;;;3.83;2.90;;;;;;;;;;4997010;28;24412;-58
2021/12/05 14:25:44;;;;;;;2.97;2.60;;;;;;;;;;4999024;28;24533;-57
2021/12/05 14:28:10;;;;;;;4.30;3.80;;;;;;;;;;5001994;28;24779;-58
2021/12/05 14:30:38;;;;;;;6.50;3.10;;;;;;;;;;4997598;28;24475;-57
2021/12/05 14:33:04;;;;;;;5.77;3.30;;;;;;;;;;5000030;28;24444;-58
2021/12/05 14:35:33;;;;;;;3.97;3.07;;;;;;;;;;5000437;28;24451;-57
2021/12/05 14:37:58;;;;;;;3.47;2.75;;;;;;;;;;5001251;28;24412;-57
2021/12/05 14:40:30;;;;;;;5.55;2.75;;;;;;;;;;5002810;28;24503;-58
2021/12/05 14:42:57;;;;;;;4.05;3.00;;;;;;;;;;5000198;28;24408;-58
2021/12/05 14:45:24;;;;;;;4.18;2.90;;;;;;;;;;4997366;28;24409;-57
2021/12/05 14:47:51;;;;;;;4.95;3.80;;;;;;;;;;5003922;28;24404;-57
2021/12/05 14:50:21;;;;;;;6.60;5.03;;;;;;;;;;5002678;28;24487;-58
2021/12/05 14:52:47;;;;;;;3.92;3.60;;;;;;;;;;5002830;28;24524;-57
2021/12/05 14:55:14;;;;;;;4.68;3.58;;;;;;;;;;5000602;28;25088;-57
2021/12/05 14:57:41;;;;;;;4.40;3.60;;;;;;;;;;5001098;28;24838;-57
2021/12/05 15:00:06;;;;;;;5.97;3.70;;;;;;;;;;5001402;28;24424;-57
2021/12/05 15:02:31;;;;;;;5.20;3.70;;;;;;;;;;5004321;28;24612;-57
2021/12/05 15:04:56;;;;;;;5.10;3.97;;;;;;;;;;4998886;28;24819;-57
2021/12/05 15:07:23;;;;;;;6.33;4.63;;;;;;;;;;5004316;28;24409;-57
2021/12/05 15:09:50;;;;;;;8.95;6.50;;;;;;;;;;5004235;28;24428;-57
2021/12/05 15:12:24;;;;;;;5.60;4.25;;;;;;;;;;4985436;28;24546;-57
2021/12/05 15:14:52;;;;;;;9.63;7.97;;;;;;;;;;5002252;28;25032;-57
2021/12/05 15:17:19;;;;;;;5.60;4.10;;;;;;;;;;5000989;28;25241;-57
2021/12/05 15:19:46;;;;;;;5.05;3.63;;;;;;;;;;5001745;28;24447;-57
2021/12/05 15:22:12;;;;;;;6.05;4.03;;;;;;;;;;5001267;28;24926;-58
2021/12/05 15:24:38;;;;;;;5.35;3.70;;;;;;;;;;4994256;28;24494;-53
2021/12/05 15:27:09;;;;;;;7.00;4.53;;;;;;;;;;4990647;28;24429;-53
2021/12/05 15:29:35;;;;;;;5.90;4.23;;;;;;;;;;4999188;28;25550;-53
2021/12/05 15:32:00;;;;;;;5.63;3.40;;;;;;;;;;5001524;28;24416;-53
2021/12/05 15:34:30;;;;;;;5.85;4.15;;;;;;;;;;5004301;28;24988;-57
2021/12/05 15:36:56;;;;;;;5.80;3.80;;;;;;;;;;5003966;28;24950;-57
2021/12/05 15:39:23;;;;;;;5.10;4.20;;;;;;;;;;4999413;28;24966;-59
2021/12/05 15:41:53;;;;;;;6.05;4.50;;;;;;;;;;5000772;28;24412;-57
2021/12/05 15:44:51;;;;;;;5.25;3.70;;;;;;;;;;5004309;28;24432;-56
2021/12/05 15:47:20;;;;;;;4.20;3.80;;;;;;;;;;4946881;28;24698;-57
2021/12/05 15:49:49;;;;;;;7.22;4.70;;;;;;;;;;5001894;28;24417;-57
2021/12/05 15:52:14;;;;;;;6.72;4.85;;;;;;;;;;4999417;28;24482;-57
2021/12/05 15:54:41;;;;;;;8.00;4.88;;;;;;;;;;5000614;28;24478;-57
2021/12/05 15:57:12;;;;;;;6.10;5.25;;;;;;;;;;4999743;28;25031;-58
2021/12/05 15:59:40;;;;;;;5.15;4.53;;;;;;;;;;5002946;28;24485;-57
2021/12/05 16:02:10;;;;;;;6.80;5.13;;;;;;;;;;4999857;28;24465;-58
2021/12/05 16:04:35;;;;;;;7.40;5.03;;;;;;;;;;4989113;28;24421;-57
2021/12/05 16:07:00;;;;;;;6.93;4.90;;;;;;;;;;5002473;28;24443;-57
2021/12/05 16:09:27;;;;;;;5.83;4.90;;;;;;;;;;4981506;28;24538;-58
2021/12/05 16:12:04;;;;;;;13.95;10.05;;;;;;;;;;5000019;28;24400;-57
2021/12/05 16:14:31;;;;;;;13.80;10.13;;;;;;;;;;5002533;28;24424;-57
2021/12/05 16:16:56;;;;;;;16.60;12.75;;;;;;;;;;5002666;28;24458;-57
2021/12/05 16:19:21;;;;;;;14.20;10.93;;;;;;;;;;4999238;28;24441;-57
2021/12/05 16:21:46;;;;;;;7.93;6.47;;;;;;;;;;4997435;28;24417;-57
2021/12/05 16:24:13;;;;;;;8.83;6.17;;;;;;;;;;4989508;28;24460;-57
2021/12/05 16:26:39;;;;;;;6.37;5.67;;;;;;;;;;5003260;28;24416;-57
2021/12/05 16:29:06;;;;;;;6.53;5.87;;;;;;;;;;5001299;28;24385;-57
2021/12/05 16:31:33;;;;;;;7.63;6.23;;;;;;;;;;4998094;28;24479;-57
2021/12/05 16:34:00;;;;;;;7.45;6.45;;;;;;;;;;5001380;28;24416;-57
2021/12/05 16:36:32;;;;;;;7.47;6.05;;;;;;;;;;4980764;28;24758;-57
2021/12/05 16:39:03;;;;;;;8.13;7.30;;;;;;;;;;5001090;28;24432;-57
2021/12/05 16:41:30;;;;;;;8.05;6.90;;;;;;;;;;5002073;28;24524;-57
2021/12/05 16:44:04;;;;;;;12.20;9.70;;;;;;;;;;5001735;28;24488;-57
2021/12/05 16:46:29;;;;;;;10.80;8.30;;;;;;;;;;4997329;28;24424;-58
2021/12/05 16:48:56;;;;;;;9.93;8.00;;;;;;;;;;4998589;28;24416;-57
2021/12/05 16:51:29;;;;;;;8.57;7.67;;;;;;;;;;5000962;28;24451;-57
2021/12/05 16:54:01;;;;;;;8.05;7.25;;;;;;;;;;4999971;28;24436;-57
2021/12/05 16:56:39;;;;;;;10.88;8.27;;;;;;;;;;4991508;28;24498;-57
2021/12/05 16:59:06;;;;;;;9.75;8.50;;;;;;;;;;5000182;28;24427;-58
2021/12/05 17:01:32;;;;;;;10.18;8.80;;;;;;;;;;5000134;28;24986;-57
2021/12/05 17:03:57;;;;;;;9.32;8.32;;;;;;;;;;5001750;28;24427;-58
2021/12/05 17:06:22;;;;;;;12.23;9.70;;;;;;;;;;5000397;28;24401;-58
2021/12/05 17:08:47;;;;;;;11.23;9.80;;;;;;;;;;5000746;28;24540;-57
2021/12/05 17:11:17;;;;;;;12.13;9.43;;;;;;;;;;4999742;28;24416;-57
2021/12/05 17:13:49;;;;;;;10.98;8.77;;;;;;;;;;4999415;28;24502;-57
2021/12/05 17:16:23;;;;;;;9.70;8.50;;;;;;;;;;5000262;28;24405;-57
2021/12/05 17:19:18;;;;;;;10.70;8.50;;;;;;;;;;5000597;28;24428;-57
2021/12/05 17:21:48;;;;;;;9.13;7.90;;;;;;;;;;4995267;28;24420;-57
2021/12/05 17:24:16;;;;;;;9.43;7.70;;;;;;;;;;4992395;28;24427;-58
2021/12/05 17:26:42;;;;;;;8.55;7.65;;;;;;;;;;4997051;28;24563;-57
2021/12/05 17:29:17;;;;;;;8.65;7.75;;;;;;;;;;4989458;28;24981;-57
2021/12/05 17:31:45;;;;;;;8.85;7.95;;;;;;;;;;4989505;28;24806;-58
2021/12/05 17:34:12;;;;;;;9.82;7.13;;;;;;;;;;4995538;28;25006;-58
2021/12/05 17:36:42;;;;;;;7.90;7.10;;;;;;;;;;5002364;28;24404;-58
2021/12/05 17:39:12;;;;;;;8.63;7.72;;;;;;;;;;4995903;28;24438;-57
2021/12/05 17:41:38;;;;;;;8.32;7.13;;;;;;;;;;4999502;28;24524;-58
2021/12/05 17:44:03;;;;;;;8.73;6.93;;;;;;;;;;5000939;28;24496;-58
2021/12/05 17:46:30;;;;;;;8.02;7.22;;;;;;;;;;4999440;28;24771;-59
2021/12/05 17:48:55;;;;;;;8.82;7.93;;;;;;;;;;4997998;28;24482;-58
2021/12/05 17:51:25;;;;;;;9.93;7.85;;;;;;;;;;4995005;28;24962;-59
2021/12/05 17:53:50;;;;;;;8.55;7.65;;;;;;;;;;5001879;28;24519;-58
2021/12/05 17:56:29;;;;;;;7.30;6.70;;;;;;;;;;4999899;28;24531;-59
2021/12/05 17:59:13;;;;;;;8.52;7.72;;;;;;;;;;5001710;28;25052;-59
2021/12/05 18:04:26;;;;;;;8.93;8.03;;;;;;;;;;4993040;28;24935;-58
2021/12/05 18:06:52;;;;;;;8.90;7.80;;;;;;;;;;4980890;28;24404;-59
2021/12/05 18:09:17;;;;;;;9.50;7.50;;;;;;;;;;5001285;28;24891;-58
2021/12/05 18:11:42;;;;;;;8.20;7.40;;;;;;;;;;5000475;28;24416;-59
2021/12/05 18:14:07;;;;;;;8.60;7.70;;;;;;;;;;5000544;28;24461;-59
2021/12/05 18:16:33;;;;;;;9.50;8.07;;;;;;;;;;4998120;28;25016;-59
2021/12/05 18:19:03;;;;;;;8.87;7.20;;;;;;;;;;4991569;28;24491;-58
2021/12/05 18:21:30;;;;;;;9.10;8.10;;;;;;;;;;5003590;28;24933;-58
2021/12/05 18:23:56;;;;;;;9.93;8.02;;;;;;;;;;5004807;28;24451;-58
2021/12/05 18:26:21;;;;;;;9.00;7.60;;;;;;;;;;4999322;28;24452;-58
2021/12/05 18:28:49;;;;;;;10.30;8.30;;;;;;;;;;4996348;28;24701;-58
2021/12/05 18:31:18;;;;;;;9.80;8.80;;;;;;;;;;4995489;28;24431;-58
2021/12/05 18:33:43;;;;;;;14.05;10.90;;;;;;;;;;5001090;28;24421;-59
2021/12/05 18:36:09;;;;;;;13.57;12.17;;;;;;;;;;5000106;28;24416;-58
2021/12/05 18:38:34;;;;;;;14.27;12.43;;;;;;;;;;5001528;28;24551;-57
2021/12/05 18:41:06;;;;;;;12.53;11.23;;;;;;;;;;4997308;28;24474;-59
2021/12/05 18:43:32;;;;;;;9.80;8.80;;;;;;;;;;4999361;28;24532;-59
2021/12/05 18:45:57;;;;;;;8.27;7.47;;;;;;;;;;4998125;28;24432;-59
2021/12/05 18:48:22;;;;;;;9.55;7.70;;;;;;;;;;4990992;28;25061;-59
2021/12/05 18:50:48;;;;;;;8.35;7.55;;;;;;;;;;4994390;28;24482;-59
2021/12/05 18:53:16;;;;;;;8.98;8.07;;;;;;;;;;4997405;28;24985;-59
2021/12/05 18:55:41;;;;;;;9.45;8.55;;;;;;;;;;4997467;28;25355;-59
2021/12/05 18:58:10;;;;;;;10.60;8.00;;;;;;;;;;4999051;28;24420;-59
2021/12/05 19:06:30;;;;;;;9.82;8.15;;;;;;;;;;4995646;28;24989;-59
2021/12/05 19:11:44;;;;;;;10.05;7.68;;;;;;;;;;5000623;28;24960;-59
2021/12/05 19:14:11;;;;;;;9.60;8.20;;;;;;;;;;4997166;28;24431;-58
2021/12/05 19:16:36;;;;;;;9.50;8.50;;;;;;;;;;5002160;28;24950;-58
2021/12/05 19:19:03;;;;;;;10.50;9.40;;;;;;;;;;4993732;28;24619;-58
2021/12/05 19:21:28;;;;;;;10.48;8.80;;;;;;;;;;5003105;28;24507;-58
2021/12/05 19:23:53;;;;;;;9.23;7.50;;;;;;;;;;5003532;28;24982;-58
2021/12/05 19:26:19;;;;;;;8.98;7.43;;;;;;;;;;5001424;28;24795;-58
2021/12/05 19:28:44;;;;;;;7.97;7.17;;;;;;;;;;4997222;28;24424;-58
2021/12/05 19:31:09;;;;;;;9.37;7.40;;;;;;;;;;5001448;28;24795;-58
2021/12/05 19:33:34;;;;;;;7.33;6.60;;;;;;;;;;5003786;28;24419;-58
2021/12/05 19:36:00;;;;;;;8.60;7.70;;;;;;;;;;5003010;28;24503;-59
2021/12/05 19:38:25;;;;;;;9.20;7.20;;;;;;;;;;5000865;28;25032;-57
2021/12/05 19:40:51;;;;;;;8.40;7.60;;;;;;;;;;5002322;28;24412;-59
2021/12/05 19:43:17;;;;;;;8.43;6.80;;;;;;;;;;5000696;28;24503;-59
2021/12/05 19:45:43;;;;;;;9.60;8.60;;;;;;;;;;4997484;28;24459;-59
2021/12/05 19:48:09;;;;;;;10.48;8.68;;;;;;;;;;4997282;28;24421;-59
2021/12/05 19:50:36;;;;;;;8.63;7.70;;;;;;;;;;4993121;28;24435;-59